createdAt,value
2017-01-16T00:00:42.258Z,0
2017-01-16T00:01:42.228Z,0
2017-01-16T00:02:42.198Z,0
2017-01-16T00:03:42.166Z,0
2017-01-16T00:04:42.142Z,0
2017-01-16T00:05:42.105Z,0
2017-01-16T00:06:42.456Z,0
2017-01-16T00:07:42.050Z,0
2017-01-16T00:08:42.029Z,0
2017-01-16T00:09:41.995Z,0
2017-01-16T00:10:41.971Z,0
2017-01-16T00:11:41.932Z,0
2017-01-16T00:12:41.902Z,0
2017-01-16T00:13:41.869Z,0
2017-01-16T00:14:41.848Z,0
2017-01-16T00:15:41.809Z,0
2017-01-16T00:16:41.779Z,0
2017-01-16T00:17:41.761Z,0
2017-01-16T00:18:41.730Z,0
2017-01-16T00:19:41.695Z,0
2017-01-16T00:20:41.659Z,0
2017-01-16T00:21:41.634Z,0
2017-01-16T00:22:41.639Z,0
2017-01-16T00:23:41.579Z,0
2017-01-16T00:24:41.542Z,0
2017-01-16T00:25:41.527Z,0
2017-01-16T00:26:41.877Z,0
2017-01-16T00:27:41.459Z,0
2017-01-16T00:28:41.418Z,0
2017-01-16T00:29:41.389Z,0
2017-01-16T00:30:41.369Z,0
2017-01-16T00:31:41.338Z,0
2017-01-16T00:32:41.296Z,0
2017-01-16T00:33:41.286Z,0
2017-01-16T00:34:41.252Z,0
2017-01-16T00:35:41.216Z,0
2017-01-16T00:36:41.195Z,0
2017-01-16T00:37:41.171Z,0
2017-01-16T00:38:41.142Z,0
2017-01-16T00:39:41.096Z,0
2017-01-16T00:40:41.071Z,0
2017-01-16T00:41:41.049Z,0
2017-01-16T00:42:41.021Z,0
2017-01-16T00:43:40.983Z,0
2017-01-16T00:44:40.969Z,0
2017-01-16T00:45:40.925Z,0
2017-01-16T00:46:40.897Z,0
2017-01-16T00:47:40.866Z,0
2017-01-16T00:48:40.854Z,0
2017-01-16T00:49:40.807Z,0
2017-01-16T00:50:40.781Z,0
2017-01-16T00:51:40.758Z,0
2017-01-16T00:52:41.109Z,0
2017-01-16T00:53:40.707Z,0
2017-01-16T00:54:40.674Z,0
2017-01-16T00:55:40.636Z,0
2017-01-16T00:56:40.615Z,0
2017-01-16T00:57:40.588Z,0
2017-01-16T00:58:40.553Z,0
2017-01-16T00:59:40.540Z,0
2017-01-16T01:00:40.534Z,0
2017-01-16T01:01:40.469Z,0
2017-01-16T01:02:40.443Z,0
2017-01-16T01:03:40.416Z,0
2017-01-16T01:04:40.399Z,0
2017-01-16T01:05:40.360Z,0
2017-01-16T01:06:40.330Z,0
2017-01-16T01:07:40.319Z,0
2017-01-16T01:08:40.269Z,0
2017-01-16T01:09:40.245Z,0
2017-01-16T01:10:40.598Z,0
2017-01-16T01:11:40.191Z,0
2017-01-16T01:12:40.163Z,0
2017-01-16T01:13:40.129Z,0
2017-01-16T01:14:40.093Z,0
2017-01-16T01:15:40.084Z,0
2017-01-16T01:16:40.048Z,0
2017-01-16T01:17:40.013Z,0
2017-01-16T01:18:39.989Z,0
2017-01-16T01:19:39.957Z,0
2017-01-16T01:20:39.942Z,0
2017-01-16T01:21:39.901Z,0
2017-01-16T01:22:39.888Z,0
2017-01-16T01:23:39.841Z,0
2017-01-16T01:24:39.812Z,0
2017-01-16T01:25:39.796Z,0
2017-01-16T01:26:39.768Z,0
2017-01-16T01:27:39.731Z,0
2017-01-16T01:28:39.695Z,0
2017-01-16T01:29:39.681Z,0
2017-01-16T01:30:39.651Z,0
2017-01-16T01:31:39.624Z,0
2017-01-16T01:32:39.590Z,0
2017-01-16T01:33:39.563Z,0
2017-01-16T01:34:39.529Z,0
2017-01-16T01:35:39.502Z,0
2017-01-16T01:36:39.467Z,0
2017-01-16T01:37:39.446Z,0
2017-01-16T01:38:39.410Z,0
2017-01-16T01:39:39.388Z,0
2017-01-16T01:40:39.367Z,0
2017-01-16T01:41:39.323Z,0
2017-01-16T01:42:39.297Z,0
2017-01-16T01:43:39.273Z,0
2017-01-16T01:44:39.249Z,0
2017-01-16T01:45:39.204Z,0
2017-01-16T01:46:39.167Z,0
2017-01-16T01:47:39.156Z,0
2017-01-16T01:48:39.109Z,0
2017-01-16T01:49:39.090Z,0
2017-01-16T01:50:39.060Z,0
2017-01-16T01:51:39.043Z,0
2017-01-16T01:52:39.000Z,0
2017-01-16T01:53:38.984Z,0
2017-01-16T01:54:38.947Z,0
2017-01-16T01:55:38.909Z,0
2017-01-16T01:56:38.879Z,0
2017-01-16T01:57:38.879Z,0
2017-01-16T01:58:38.827Z,0
2017-01-16T01:59:38.794Z,0
2017-01-16T02:00:38.778Z,0
2017-01-16T02:01:38.746Z,0
2017-01-16T02:02:38.735Z,0
2017-01-16T02:03:38.690Z,0
2017-01-16T02:04:38.659Z,0
2017-01-16T02:05:38.633Z,0
2017-01-16T02:06:38.605Z,0
2017-01-16T02:07:38.568Z,0
2017-01-16T02:08:38.546Z,0
2017-01-16T02:09:38.517Z,0
2017-01-16T02:10:38.495Z,0
2017-01-16T02:11:38.472Z,0
2017-01-16T02:12:38.452Z,0
2017-01-16T02:13:38.394Z,0
2017-01-16T02:14:38.368Z,0
2017-01-16T02:15:38.345Z,0
2017-01-16T02:16:38.318Z,0
2017-01-16T02:17:38.287Z,0
2017-01-16T02:18:38.256Z,0
2017-01-16T02:19:38.221Z,0
2017-01-16T02:20:38.189Z,0
2017-01-16T02:21:38.175Z,0
2017-01-16T02:22:38.136Z,0
2017-01-16T02:23:38.115Z,0
2017-01-16T02:24:38.085Z,0
2017-01-16T02:25:38.051Z,0
2017-01-16T02:26:38.028Z,0
2017-01-16T02:27:37.985Z,0
2017-01-16T02:28:37.969Z,0
2017-01-16T02:29:37.939Z,0
2017-01-16T02:30:37.909Z,0
2017-01-16T02:31:37.879Z,0
2017-01-16T02:32:37.839Z,0
2017-01-16T02:33:37.817Z,0
2017-01-16T02:34:37.793Z,0
2017-01-16T02:35:37.766Z,0
2017-01-16T02:36:37.766Z,0
2017-01-16T02:37:37.694Z,0
2017-01-16T02:38:37.670Z,0
2017-01-16T02:39:37.645Z,0
2017-01-16T02:40:37.619Z,0
2017-01-16T02:41:37.584Z,0
2017-01-16T02:42:37.563Z,0
2017-01-16T02:43:37.531Z,0
2017-01-16T02:44:37.511Z,0
2017-01-16T02:45:37.461Z,0
2017-01-16T02:46:37.436Z,0
2017-01-16T02:47:37.421Z,0
2017-01-16T02:48:37.376Z,0
2017-01-16T02:49:37.363Z,0
2017-01-16T02:50:37.327Z,0
2017-01-16T02:51:37.407Z,0
2017-01-16T02:52:37.919Z,0
2017-01-16T02:53:37.238Z,0
2017-01-16T02:54:37.210Z,0
2017-01-16T02:55:37.181Z,0
2017-01-16T02:56:37.152Z,0
2017-01-16T02:57:37.125Z,0
2017-01-16T02:58:37.096Z,0
2017-01-16T02:59:37.067Z,0
2017-01-16T03:00:37.032Z,0
2017-01-16T03:01:37.007Z,0
2017-01-16T03:02:37.013Z,0
2017-01-16T03:03:36.951Z,0
2017-01-16T03:04:36.929Z,0
2017-01-16T03:05:36.900Z,0
2017-01-16T03:06:36.857Z,0
2017-01-16T03:07:36.845Z,0
2017-01-16T03:08:36.806Z,0
2017-01-16T03:09:36.782Z,0
2017-01-16T03:10:36.748Z,0
2017-01-16T03:11:36.737Z,0
2017-01-16T03:12:36.681Z,0
2017-01-16T03:13:36.671Z,0
2017-01-16T03:14:36.627Z,0
2017-01-16T03:15:36.604Z,0
2017-01-16T03:16:36.584Z,0
2017-01-16T03:17:36.559Z,0
2017-01-16T03:18:36.524Z,0
2017-01-16T03:19:36.500Z,0
2017-01-16T03:20:36.450Z,0
2017-01-16T03:21:36.450Z,0
2017-01-16T03:22:36.446Z,0
2017-01-16T03:23:36.379Z,0
2017-01-16T03:24:36.342Z,0
2017-01-16T03:25:36.314Z,0
2017-01-16T03:26:36.292Z,0
2017-01-16T03:27:36.259Z,0
2017-01-16T03:28:36.238Z,0
2017-01-16T03:29:36.204Z,0
2017-01-16T03:30:36.173Z,0
2017-01-16T03:31:36.141Z,0
2017-01-16T03:32:36.117Z,0
2017-01-16T03:33:36.090Z,0
2017-01-16T03:34:36.056Z,0
2017-01-16T03:35:36.042Z,0
2017-01-16T03:36:35.995Z,0
2017-01-16T03:37:35.981Z,0
2017-01-16T03:38:35.949Z,0
2017-01-16T03:39:35.929Z,0
2017-01-16T03:40:35.885Z,0
2017-01-16T03:41:35.851Z,0
2017-01-16T03:42:35.832Z,0
2017-01-16T03:43:35.795Z,0
2017-01-16T03:44:35.782Z,0
2017-01-16T03:45:35.760Z,0
2017-01-16T03:46:35.721Z,0
2017-01-16T03:47:35.689Z,0
2017-01-16T03:48:35.666Z,0
2017-01-16T03:49:35.655Z,0
2017-01-16T03:50:35.605Z,0
2017-01-16T03:51:35.575Z,0
2017-01-16T03:52:35.590Z,0
2017-01-16T03:53:35.516Z,0
2017-01-16T03:54:35.498Z,0
2017-01-16T03:55:35.462Z,0
2017-01-16T03:56:35.434Z,0
2017-01-16T03:57:35.410Z,0
2017-01-16T03:58:35.400Z,0
2017-01-16T03:59:35.353Z,0
2017-01-16T04:00:35.313Z,0
2017-01-16T04:01:35.286Z,0
2017-01-16T04:02:35.266Z,0
2017-01-16T04:03:35.245Z,0
2017-01-16T04:04:35.196Z,0
2017-01-16T04:05:35.177Z,0
2017-01-16T04:06:35.143Z,0
2017-01-16T04:07:35.177Z,0
2017-01-16T04:08:35.111Z,0
2017-01-16T04:09:35.059Z,0
2017-01-16T04:10:35.028Z,0
2017-01-16T04:11:35.007Z,0
2017-01-16T04:12:35.043Z,0
2017-01-16T04:13:34.964Z,0
2017-01-16T04:14:34.932Z,0
2017-01-16T04:15:34.900Z,0
2017-01-16T04:16:35.256Z,0
2017-01-16T04:17:34.849Z,0
2017-01-16T04:18:34.823Z,0
2017-01-16T04:19:34.794Z,0
2017-01-16T04:20:34.767Z,0
2017-01-16T04:21:34.739Z,0
2017-01-16T04:22:34.717Z,0
2017-01-16T04:23:34.702Z,0
2017-01-16T04:24:34.639Z,0
2017-01-16T04:25:34.620Z,0
2017-01-16T04:26:34.601Z,0
2017-01-16T04:27:34.573Z,0
2017-01-16T04:28:34.542Z,0
2017-01-16T04:29:34.498Z,0
2017-01-16T04:30:34.480Z,0
2017-01-16T04:31:34.457Z,0
2017-01-16T04:32:34.431Z,0
2017-01-16T04:33:34.387Z,0
2017-01-16T04:34:34.389Z,0
2017-01-16T04:35:34.341Z,0
2017-01-16T04:36:34.328Z,0
2017-01-16T04:37:34.302Z,0
2017-01-16T04:38:34.260Z,0
2017-01-16T04:39:34.241Z,0
2017-01-16T04:40:34.204Z,0
2017-01-16T04:41:34.168Z,0
2017-01-16T04:42:34.151Z,0
2017-01-16T04:43:34.125Z,0
2017-01-16T04:44:34.102Z,0
2017-01-16T04:45:34.067Z,0
2017-01-16T04:46:34.040Z,0
2017-01-16T04:47:34.011Z,0
2017-01-16T04:48:33.981Z,0
2017-01-16T04:49:33.961Z,0
2017-01-16T04:50:33.939Z,0
2017-01-16T04:51:33.917Z,0
2017-01-16T04:52:33.878Z,0
2017-01-16T04:53:33.854Z,0
2017-01-16T04:54:33.814Z,0
2017-01-16T04:55:33.787Z,0
2017-01-16T04:56:33.769Z,0
2017-01-16T04:57:33.734Z,0
2017-01-16T04:58:33.720Z,0
2017-01-16T04:59:33.685Z,0
2017-01-16T05:00:33.648Z,0
2017-01-16T05:01:33.632Z,0
2017-01-16T05:02:33.601Z,0
2017-01-16T05:03:33.565Z,0
2017-01-16T05:04:33.558Z,0
2017-01-16T05:05:33.519Z,0
2017-01-16T05:06:33.488Z,0
2017-01-16T05:07:33.471Z,0
2017-01-16T05:08:33.441Z,0
2017-01-16T05:09:33.403Z,0
2017-01-16T05:10:33.374Z,0
2017-01-16T05:11:33.385Z,0
2017-01-16T05:12:33.335Z,0
2017-01-16T05:13:33.326Z,0
2017-01-16T05:14:33.278Z,0
2017-01-16T05:15:33.247Z,0
2017-01-16T05:16:33.231Z,0
2017-01-16T05:17:33.190Z,0
2017-01-16T05:18:33.166Z,0
2017-01-16T05:19:33.143Z,0
2017-01-16T05:20:33.111Z,0
2017-01-16T05:21:33.090Z,0
2017-01-16T05:22:33.062Z,0
2017-01-16T05:23:33.037Z,0
2017-01-16T05:24:33.002Z,0
2017-01-16T05:25:32.966Z,0
2017-01-16T05:26:32.970Z,0
2017-01-16T05:27:32.927Z,0
2017-01-16T05:28:32.915Z,0
2017-01-16T05:29:32.860Z,0
2017-01-16T05:30:32.845Z,0
2017-01-16T05:31:32.821Z,0
2017-01-16T05:32:32.788Z,0
2017-01-16T05:33:32.762Z,0
2017-01-16T05:34:32.731Z,0
2017-01-16T05:35:32.702Z,0
2017-01-16T05:36:32.678Z,0
2017-01-16T05:37:32.644Z,0
2017-01-16T05:38:32.834Z,0
2017-01-16T05:39:32.599Z,0
2017-01-16T05:40:32.568Z,0
2017-01-16T05:41:32.533Z,0
2017-01-16T05:42:32.513Z,0
2017-01-16T05:43:32.488Z,0
2017-01-16T05:44:32.458Z,0
2017-01-16T05:45:32.434Z,0
2017-01-16T05:46:32.387Z,0
2017-01-16T05:47:32.371Z,0
2017-01-16T05:48:32.349Z,0
2017-01-16T05:49:32.320Z,0
2017-01-16T05:50:32.297Z,0
2017-01-16T05:51:32.258Z,0
2017-01-16T05:52:32.233Z,0
2017-01-16T05:53:32.207Z,0
2017-01-16T05:54:32.168Z,0
2017-01-16T05:55:32.161Z,0
2017-01-16T05:56:32.112Z,0
2017-01-16T05:57:32.088Z,0
2017-01-16T05:58:32.061Z,0
2017-01-16T05:59:32.034Z,0
2017-01-16T06:00:31.995Z,0
2017-01-16T06:01:31.977Z,0
2017-01-16T06:02:31.943Z,0
2017-01-16T06:03:31.940Z,0
2017-01-16T06:04:32.095Z,0
2017-01-16T06:05:31.858Z,0
2017-01-16T06:06:31.816Z,0
2017-01-16T06:07:31.799Z,0
2017-01-16T06:08:31.764Z,0
2017-01-16T06:09:31.733Z,0
2017-01-16T06:10:31.724Z,0
2017-01-16T06:11:31.691Z,0
2017-01-16T06:12:31.660Z,0
2017-01-16T06:13:31.628Z,0
2017-01-16T06:14:31.603Z,0
2017-01-16T06:15:31.578Z,0
2017-01-16T06:16:31.541Z,0
2017-01-16T06:17:31.559Z,0
2017-01-16T06:18:31.491Z,0
2017-01-16T06:19:31.469Z,0
2017-01-16T06:20:31.437Z,0
2017-01-16T06:21:31.401Z,0
2017-01-16T06:22:31.376Z,0
2017-01-16T06:23:31.352Z,0
2017-01-16T06:24:31.319Z,0
2017-01-16T06:25:31.294Z,0
2017-01-16T06:26:31.269Z,0
2017-01-16T06:27:31.233Z,4
2017-01-16T06:28:31.202Z,4
2017-01-16T06:29:31.175Z,0
2017-01-16T06:30:31.152Z,4
2017-01-16T06:31:31.123Z,4
2017-01-16T06:32:31.100Z,4
2017-01-16T06:33:31.074Z,4
2017-01-16T06:34:31.040Z,4
2017-01-16T06:35:31.011Z,8
2017-01-16T06:36:30.974Z,8
2017-01-16T06:37:30.951Z,12
2017-01-16T06:38:30.943Z,16
2017-01-16T06:39:30.892Z,16
2017-01-16T06:40:30.864Z,16
2017-01-16T06:41:30.851Z,20
2017-01-16T06:42:30.810Z,24
2017-01-16T06:43:30.795Z,32
2017-01-16T06:44:30.765Z,36
2017-01-16T06:45:30.725Z,40
2017-01-16T06:46:30.696Z,48
2017-01-16T06:47:30.673Z,52
2017-01-16T06:48:30.653Z,60
2017-01-16T06:49:30.622Z,64
2017-01-16T06:50:30.590Z,76
2017-01-16T06:51:30.559Z,80
2017-01-16T06:52:30.527Z,92
2017-01-16T06:53:30.517Z,100
2017-01-16T06:54:30.464Z,112
2017-01-16T06:55:30.643Z,128
2017-01-16T06:56:30.619Z,144
2017-01-16T06:57:30.388Z,156
2017-01-16T06:58:30.370Z,172
2017-01-16T06:59:30.332Z,188
2017-01-16T07:00:30.320Z,204
2017-01-16T07:01:30.283Z,220
2017-01-16T07:02:30.256Z,236
2017-01-16T07:03:30.223Z,260
2017-01-16T07:04:30.188Z,288
2017-01-16T07:05:30.155Z,320
2017-01-16T07:06:30.134Z,356
2017-01-16T07:07:30.121Z,400
2017-01-16T07:08:30.082Z,460
2017-01-16T07:09:30.045Z,524
2017-01-16T07:10:30.028Z,580
2017-01-16T07:11:30.006Z,596
2017-01-16T07:12:29.965Z,600
2017-01-16T07:13:29.935Z,648
2017-01-16T07:14:29.915Z,704
2017-01-16T07:15:29.880Z,752
2017-01-16T07:16:29.860Z,756
2017-01-16T07:17:29.830Z,784
2017-01-16T07:18:29.801Z,792
2017-01-16T07:19:29.775Z,760
2017-01-16T07:20:29.752Z,788
2017-01-16T07:21:29.728Z,868
2017-01-16T07:22:29.908Z,988
2017-01-16T07:23:29.660Z,1128
2017-01-16T07:24:29.638Z,1184
2017-01-16T07:25:29.597Z,1236
2017-01-16T07:26:29.997Z,1332
2017-01-16T07:27:29.531Z,1320
2017-01-16T07:28:29.525Z,1276
2017-01-16T07:29:29.484Z,1268
2017-01-16T07:30:29.460Z,1220
2017-01-16T07:31:29.432Z,1204
2017-01-16T07:32:29.407Z,1236
2017-01-16T07:33:29.376Z,1288
2017-01-16T07:34:29.354Z,1344
2017-01-16T07:35:29.317Z,1380
2017-01-16T07:36:29.288Z,1532
2017-01-16T07:37:29.261Z,1772
2017-01-16T07:38:29.230Z,1940
2017-01-16T07:39:29.208Z,2188
2017-01-16T07:40:29.196Z,2384
2017-01-16T07:41:29.162Z,2388
2017-01-16T07:42:29.133Z,2412
2017-01-16T07:43:29.103Z,2592
2017-01-16T07:44:29.090Z,2888
2017-01-16T07:45:29.048Z,3048
2017-01-16T07:46:29.031Z,3232
2017-01-16T07:47:29.192Z,3544
2017-01-16T07:48:28.965Z,3640
2017-01-16T07:49:28.937Z,3612
2017-01-16T07:50:28.919Z,3588
2017-01-16T07:51:28.885Z,3640
2017-01-16T07:52:28.861Z,3784
2017-01-16T07:53:28.820Z,3944
2017-01-16T07:54:28.813Z,4040
2017-01-16T07:55:28.769Z,4116
2017-01-16T07:56:28.763Z,4776
2017-01-16T07:57:28.727Z,4456
2017-01-16T07:58:28.686Z,4644
2017-01-16T07:59:28.680Z,4720
2017-01-16T08:00:28.634Z,5012
2017-01-16T08:01:28.610Z,4900
2017-01-16T08:02:28.591Z,4672
2017-01-16T08:03:28.557Z,5332
2017-01-16T08:04:28.530Z,4996
2017-01-16T08:05:28.500Z,5068
2017-01-16T08:06:28.480Z,5792
2017-01-16T08:07:28.466Z,6140
2017-01-16T08:08:28.442Z,6144
2017-01-16T08:09:28.414Z,6104
2017-01-16T08:10:28.381Z,6616
2017-01-16T08:11:28.354Z,7324
2017-01-16T08:12:28.328Z,7488
2017-01-16T08:13:28.294Z,7560
2017-01-16T08:14:28.285Z,7644
2017-01-16T08:15:28.238Z,7756
2017-01-16T08:16:28.214Z,7660
2017-01-16T08:17:28.195Z,7540
2017-01-16T08:18:28.163Z,7296
2017-01-16T08:19:28.148Z,6984
2017-01-16T08:20:28.119Z,6668
2017-01-16T08:21:28.107Z,6796
2017-01-16T08:22:28.079Z,6664
2017-01-16T08:23:28.045Z,7028
2017-01-16T08:24:28.026Z,6444
2017-01-16T08:25:28.005Z,6480
2017-01-16T08:26:27.975Z,7212
2017-01-16T08:27:27.938Z,7728
2017-01-16T08:28:27.930Z,7928
2017-01-16T08:29:27.912Z,7188
2017-01-16T08:30:27.886Z,6872
2017-01-16T08:31:27.864Z,6600
2017-01-16T08:32:27.843Z,7272
2017-01-16T08:33:27.819Z,7376
2017-01-16T08:34:27.768Z,7328
2017-01-16T08:35:27.765Z,6664
2017-01-16T08:36:27.713Z,6624
2017-01-16T08:37:27.702Z,6652
2017-01-16T08:38:27.678Z,6732
2017-01-16T08:39:27.643Z,7160
2017-01-16T08:40:27.633Z,7112
2017-01-16T08:41:27.615Z,6916
2017-01-16T08:42:27.572Z,7152
2017-01-16T08:43:27.564Z,7800
2017-01-16T08:44:27.536Z,8048
2017-01-16T08:45:27.512Z,8164
2017-01-16T08:46:27.496Z,7980
2017-01-16T08:47:27.464Z,7884
2017-01-16T08:48:27.447Z,7868
2017-01-16T08:49:27.418Z,8008
2017-01-16T08:50:27.389Z,8292
2017-01-16T08:51:27.379Z,8624
2017-01-16T08:52:27.346Z,8616
2017-01-16T08:53:27.335Z,8656
2017-01-16T08:54:27.293Z,8656
2017-01-16T08:55:27.269Z,8700
2017-01-16T08:56:27.288Z,8780
2017-01-16T08:57:27.225Z,8804
2017-01-16T08:58:27.201Z,8500
2017-01-16T08:59:27.191Z,8460
2017-01-16T09:00:27.153Z,8372
2017-01-16T09:01:27.143Z,8360
2017-01-16T09:02:27.106Z,8340
2017-01-16T09:03:27.076Z,8036
2017-01-16T09:04:27.060Z,7880
2017-01-16T09:05:27.034Z,8528
2017-01-16T09:06:27.013Z,8684
2017-01-16T09:07:26.996Z,8792
2017-01-16T09:08:27.369Z,8836
2017-01-16T09:09:26.943Z,8772
2017-01-16T09:10:26.923Z,8792
2017-01-16T09:11:26.902Z,8892
2017-01-16T09:12:26.870Z,8980
2017-01-16T09:13:26.868Z,8964
2017-01-16T09:14:26.839Z,9048
2017-01-16T09:15:26.816Z,9036
2017-01-16T09:16:26.804Z,9020
2017-01-16T09:17:26.763Z,8984
2017-01-16T09:18:26.743Z,9048
2017-01-16T09:19:26.717Z,9196
2017-01-16T09:20:26.700Z,9116
2017-01-16T09:21:26.674Z,9276
2017-01-16T09:22:26.652Z,9364
2017-01-16T09:23:26.630Z,9260
2017-01-16T09:24:26.623Z,9288
2017-01-16T09:25:26.591Z,9240
2017-01-16T09:26:26.559Z,9368
2017-01-16T09:27:26.544Z,9372
2017-01-16T09:28:26.537Z,9392
2017-01-16T09:29:26.504Z,9416
2017-01-16T09:30:26.476Z,9560
2017-01-16T09:31:26.448Z,9628
2017-01-16T09:32:26.455Z,9744
2017-01-16T09:33:26.416Z,9816
2017-01-16T09:34:26.384Z,9992
2017-01-16T09:35:26.364Z,10100
2017-01-16T09:36:26.352Z,9932
2017-01-16T09:37:26.330Z,10084
2017-01-16T09:38:26.302Z,10004
2017-01-16T09:39:26.279Z,9460
2017-01-16T09:40:26.254Z,9660
2017-01-16T09:41:26.236Z,8292
2017-01-16T09:42:26.206Z,10060
2017-01-16T09:43:26.201Z,10316
2017-01-16T09:44:26.179Z,10044
2017-01-16T09:45:26.153Z,9968
2017-01-16T09:46:26.116Z,10124
2017-01-16T09:47:26.115Z,10276
2017-01-16T09:48:26.088Z,10452
2017-01-16T09:49:26.065Z,10596
2017-01-16T09:50:26.026Z,10600
2017-01-16T09:51:26.015Z,10632
2017-01-16T09:52:25.991Z,10752
2017-01-16T09:53:26.374Z,9828
2017-01-16T09:54:25.948Z,10944
2017-01-16T09:55:25.939Z,11084
2017-01-16T09:56:25.914Z,11136
2017-01-16T09:57:25.890Z,11412
2017-01-16T09:58:25.860Z,11444
2017-01-16T09:59:25.841Z,11456
2017-01-16T10:00:25.815Z,11524
2017-01-16T10:01:25.812Z,11988
2017-01-16T10:02:25.775Z,12692
2017-01-16T10:03:25.769Z,13596
2017-01-16T10:04:25.756Z,14960
2017-01-16T10:05:25.716Z,16544
2017-01-16T10:06:25.696Z,17792
2017-01-16T10:07:25.686Z,18944
2017-01-16T10:08:25.660Z,19648
2017-01-16T10:09:25.636Z,20640
2017-01-16T10:10:25.612Z,21792
2017-01-16T10:11:25.603Z,23296
2017-01-16T10:12:25.569Z,23104
2017-01-16T10:13:25.546Z,22592
2017-01-16T10:14:25.528Z,21248
2017-01-16T10:15:25.511Z,21728
2017-01-16T10:16:25.490Z,21216
2017-01-16T10:17:25.462Z,18944
2017-01-16T10:18:25.471Z,20960
2017-01-16T10:19:25.426Z,18240
2017-01-16T10:20:25.405Z,20384
2017-01-16T10:21:25.371Z,22400
2017-01-16T10:22:25.348Z,23200
2017-01-16T10:23:25.368Z,20768
2017-01-16T10:24:25.315Z,21056
2017-01-16T10:25:25.297Z,16960
2017-01-16T10:26:25.270Z,20096
2017-01-16T10:27:25.275Z,20064
2017-01-16T10:28:25.237Z,19040
2017-01-16T10:29:25.223Z,20192
2017-01-16T10:30:25.205Z,16328
2017-01-16T10:31:25.176Z,15744
2017-01-16T10:32:25.157Z,18016
2017-01-16T10:33:25.134Z,18784
2017-01-16T10:34:25.125Z,21376
2017-01-16T10:35:25.098Z,22240
2017-01-16T10:36:25.073Z,17024
2017-01-16T10:37:25.059Z,15240
2017-01-16T10:38:25.031Z,15840
2017-01-16T10:39:25.015Z,19360
2017-01-16T10:40:24.997Z,22176
2017-01-16T10:41:24.984Z,20256
2017-01-16T10:42:24.962Z,23264
2017-01-16T10:43:24.935Z,24736
2017-01-16T10:44:24.914Z,24736
2017-01-16T10:45:24.894Z,16388
2017-01-16T10:46:24.877Z,15844
2017-01-16T10:47:24.864Z,16704
2017-01-16T10:48:24.834Z,18048
2017-01-16T10:49:24.813Z,21056
2017-01-16T10:50:24.803Z,17824
2017-01-16T10:51:24.767Z,18176
2017-01-16T10:52:24.742Z,23904
2017-01-16T10:53:24.721Z,19648
2017-01-16T10:54:24.697Z,18720
2017-01-16T10:55:24.670Z,25536
2017-01-16T10:56:24.642Z,26208
2017-01-16T10:57:24.645Z,15252
2017-01-16T10:58:24.605Z,21888
2017-01-16T10:59:24.592Z,16736
2017-01-16T11:00:24.568Z,18720
2017-01-16T11:01:24.546Z,25440
2017-01-16T11:02:24.510Z,16864
2017-01-16T11:03:24.508Z,15768
2017-01-16T11:04:24.483Z,17312
2017-01-16T11:05:24.457Z,15312
2017-01-16T11:06:24.431Z,17632
2017-01-16T11:07:24.401Z,19616
2017-01-16T11:08:24.388Z,15568
2017-01-16T11:09:24.352Z,17632
2017-01-16T11:10:24.333Z,19808
2017-01-16T11:11:24.315Z,21440
2017-01-16T11:12:24.308Z,16448
2017-01-16T11:13:24.268Z,15404
2017-01-16T11:14:24.236Z,15072
2017-01-16T11:15:24.212Z,14032
2017-01-16T11:16:24.187Z,13284
2017-01-16T11:17:24.165Z,12956
2017-01-16T11:18:24.131Z,13912
2017-01-16T11:19:24.109Z,13168
2017-01-16T11:20:24.086Z,12100
2017-01-16T11:21:24.054Z,11696
2017-01-16T11:22:24.045Z,12064
2017-01-16T11:23:24.017Z,13440
2017-01-16T11:24:23.994Z,14944
2017-01-16T11:25:23.997Z,20896
2017-01-16T11:26:23.944Z,25344
2017-01-16T11:27:23.911Z,19872
2017-01-16T11:28:23.894Z,16192
2017-01-16T11:29:23.871Z,14860
2017-01-16T11:30:23.838Z,14896
2017-01-16T11:31:23.819Z,15472
2017-01-16T11:32:23.801Z,15956
2017-01-16T11:33:23.763Z,15564
2017-01-16T11:34:23.739Z,14488
2017-01-16T11:35:23.721Z,13480
2017-01-16T11:36:23.696Z,12472
2017-01-16T11:37:23.763Z,11100
2017-01-16T11:38:23.636Z,10848
2017-01-16T11:39:23.621Z,12172
2017-01-16T11:40:23.603Z,12444
2017-01-16T11:41:23.575Z,11900
2017-01-16T11:42:23.537Z,11172
2017-01-16T11:43:23.923Z,10868
2017-01-16T11:44:23.520Z,11552
2017-01-16T11:45:23.505Z,12224
2017-01-16T11:46:23.445Z,12784
2017-01-16T11:47:23.424Z,13420
2017-01-16T11:48:23.400Z,13376
2017-01-16T11:49:23.370Z,14576
2017-01-16T11:50:23.344Z,18496
2017-01-16T11:51:23.324Z,18432
2017-01-16T11:52:23.291Z,16800
2017-01-16T11:53:23.278Z,15756
2017-01-16T11:54:23.238Z,14528
2017-01-16T11:55:23.205Z,13356
2017-01-16T11:56:23.183Z,13520
2017-01-16T11:57:23.166Z,15052
2017-01-16T11:58:23.129Z,15184
2017-01-16T11:59:23.111Z,17312
2017-01-16T12:00:23.082Z,20704
2017-01-16T12:01:23.071Z,18400
2017-01-16T12:02:23.045Z,19008
2017-01-16T12:03:23.012Z,18368
2017-01-16T12:04:22.980Z,19360
2017-01-16T12:05:22.959Z,16456
2017-01-16T12:06:22.930Z,17120
2017-01-16T12:07:22.912Z,17120
2017-01-16T12:08:22.891Z,15844
2017-01-16T12:09:22.866Z,17024
2017-01-16T12:10:22.835Z,19168
2017-01-16T12:11:22.812Z,17056
2017-01-16T12:12:22.795Z,15380
2017-01-16T12:13:22.770Z,13672
2017-01-16T12:14:22.731Z,16284
2017-01-16T12:15:22.703Z,19296
2017-01-16T12:16:22.684Z,15692
2017-01-16T12:17:22.668Z,14328
2017-01-16T12:18:22.631Z,12616
2017-01-16T12:19:22.615Z,13272
2017-01-16T12:20:22.587Z,14380
2017-01-16T12:21:22.554Z,14128
2017-01-16T12:22:22.521Z,13384
2017-01-16T12:23:22.510Z,12964
2017-01-16T12:24:22.477Z,12140
2017-01-16T12:25:22.447Z,12252
2017-01-16T12:26:22.432Z,12360
2017-01-16T12:27:22.410Z,12676
2017-01-16T12:28:22.369Z,12364
2017-01-16T12:29:22.349Z,12020
2017-01-16T12:30:22.329Z,13152
2017-01-16T12:31:22.288Z,14008
2017-01-16T12:32:22.266Z,13228
2017-01-16T12:33:22.242Z,11224
2017-01-16T12:34:22.215Z,9880
2017-01-16T12:35:22.192Z,9304
2017-01-16T12:36:22.152Z,9536
2017-01-16T12:37:22.134Z,9788
2017-01-16T12:38:22.107Z,9752
2017-01-16T12:39:22.080Z,9316
2017-01-16T12:40:22.053Z,8600
2017-01-16T12:41:22.014Z,7580
2017-01-16T12:42:21.994Z,6836
2017-01-16T12:43:21.972Z,6568
2017-01-16T12:44:21.942Z,6624
2017-01-16T12:45:21.918Z,6836
2017-01-16T12:46:21.916Z,7028
2017-01-16T12:47:21.865Z,6944
2017-01-16T12:48:21.838Z,6700
2017-01-16T12:49:21.806Z,6384
2017-01-16T12:50:21.779Z,6452
2017-01-16T12:51:21.766Z,6892
2017-01-16T12:52:21.719Z,7276
2017-01-16T12:53:21.695Z,7356
2017-01-16T12:54:21.696Z,7024
2017-01-16T12:55:21.641Z,6592
2017-01-16T12:56:21.602Z,6096
2017-01-16T12:57:21.596Z,5636
2017-01-16T12:58:21.566Z,5400
2017-01-16T12:59:21.528Z,5548
2017-01-16T13:00:21.519Z,5624
2017-01-16T13:01:21.870Z,5828
2017-01-16T13:02:21.449Z,6488
2017-01-16T13:03:21.429Z,7084
2017-01-16T13:04:21.386Z,7476
2017-01-16T13:05:21.345Z,7572
2017-01-16T13:06:21.331Z,7508
2017-01-16T13:07:21.296Z,7488
2017-01-16T13:08:21.287Z,7196
2017-01-16T13:09:21.239Z,6828
2017-01-16T13:10:21.217Z,6620
2017-01-16T13:11:21.193Z,6436
2017-01-16T13:12:21.160Z,6228
2017-01-16T13:13:21.170Z,6292
2017-01-16T13:14:21.123Z,6568
2017-01-16T13:15:21.090Z,7064
2017-01-16T13:16:21.062Z,7240
2017-01-16T13:17:21.067Z,7280
2017-01-16T13:18:21.005Z,7104
2017-01-16T13:19:20.973Z,6888
2017-01-16T13:20:20.954Z,6828
2017-01-16T13:21:20.918Z,6896
2017-01-16T13:22:20.898Z,6724
2017-01-16T13:23:20.868Z,6496
2017-01-16T13:24:20.834Z,5964
2017-01-16T13:25:20.844Z,5792
2017-01-16T13:26:20.781Z,5760
2017-01-16T13:27:20.761Z,5964
2017-01-16T13:28:20.764Z,6372
2017-01-16T13:29:20.695Z,6252
2017-01-16T13:30:20.669Z,6000
2017-01-16T13:31:20.645Z,5824
2017-01-16T13:32:20.614Z,6116
2017-01-16T13:33:20.597Z,6860
2017-01-16T13:34:20.719Z,6948
2017-01-16T13:35:20.532Z,6748
2017-01-16T13:36:20.511Z,6704
2017-01-16T13:37:20.497Z,6484
2017-01-16T13:38:20.444Z,6580
2017-01-16T13:39:20.436Z,6348
2017-01-16T13:40:20.390Z,6064
2017-01-16T13:41:20.376Z,6452
2017-01-16T13:42:20.347Z,7584
2017-01-16T13:43:20.322Z,7104
2017-01-16T13:44:20.285Z,6236
2017-01-16T13:45:20.262Z,5780
2017-01-16T13:46:20.247Z,5668
2017-01-16T13:47:20.208Z,6320
2017-01-16T13:48:20.179Z,6692
2017-01-16T13:49:20.147Z,5916
2017-01-16T13:50:20.119Z,6088
2017-01-16T13:51:20.105Z,6624
2017-01-16T13:52:20.072Z,6920
2017-01-16T13:53:20.049Z,6916
2017-01-16T13:54:20.018Z,6360